La Pepa Cadiz — EA4275 — position and weather

sailwx.info

Track history (hours):
 
Tides and Currents Weather Stations Pressure Air Temp Water Temp Dewpoint Dewpoint Depression Visibility Wind Speed Wind Dir Waves Ship Positions

La Pepa Cadiz

Last reported at 2017-Oct-03 07:45 UTC. Time now 2017-Oct-17 17:06 UTC.
Position N 37°34' W 000°49'.
Warning: this ship's position is 14 days out of date.

Length 21 m.

Type: Passenger vessel. MMSI: 224000010.

Date/timePositionNaut miles runAvg speedWind from/ knotsBaromVisibWave heightAir tempDewpointWater temp
2017-Oct-03 07:45N 37°34' W 000°49'2 8.4
2017-Oct-03 07:30N 37°34' W 000°46'6 8.4
2017-Oct-03 06:45N 37°37' W 000°39'2 8.5
2017-Oct-03 06:29N 37°38' W 000°36'4 8.5
2017-Oct-03 06:00N 37°39' W 000°31'116 8.1
2017-Oct-02 15:39N 38°50' E 001°25'1 8.1
2017-Oct-02 15:30N 38°52' E 001°25'2 4.4
2017-Oct-02 14:59N 38°54' E 001°25'0 0.0
2017-Oct-02 14:30N 38°54' E 001°25'0 0.7
2017-Oct-02 14:00N 38°54' E 001°25'0 0.7
2017-Oct-02 13:30N 38°54' E 001°25'0 0.0
2017-Oct-02 13:00N 38°54' E 001°25'0 0.0
2017-Oct-02 12:29N 38°54' E 001°25'0 0.0
2017-Oct-02 11:59N 38°54' E 001°25'0 0.0
2017-Oct-02 11:28N 38°54' E 001°25'0 0.0
2017-Oct-02 11:00N 38°54' E 001°25'0 0.0
2017-Oct-02 10:29N 38°54' E 001°25'0 0.0
2017-Oct-02 10:00N 38°54' E 001°25'0 0.0
2017-Oct-02 09:30N 38°54' E 001°25'0 0.0
2017-Oct-02 09:00N 38°54' E 001°25'0 0.0
2017-Oct-02 08:30N 38°54' E 001°25'0 0.7
2017-Oct-02 07:58N 38°54' E 001°25'0 0.0
2017-Oct-02 07:30N 38°54' E 001°25'0 0.0
2017-Oct-02 06:59N 38°54' E 001°25'0 0.0
2017-Oct-02 06:27N 38°54' E 001°25'0 0.0
2017-Oct-02 05:59N 38°54' E 001°25'0 0.0
2017-Oct-02 05:30N 38°54' E 001°25'0 0.0
2017-Oct-02 05:00N 38°54' E 001°25'0 0.0
2017-Oct-02 04:28N 38°54' E 001°25'0 0.0
2017-Oct-02 04:00N 38°54' E 001°25'0 0.0
2017-Oct-02 03:30N 38°54' E 001°25'0 0.0
2017-Oct-02 02:59N 38°54' E 001°25'0 0.0
2017-Oct-02 02:30N 38°54' E 001°25'0 0.0
2017-Oct-02 01:58N 38°54' E 001°25'0 0.0
2017-Oct-02 01:30N 38°54' E 001°25'0 0.0
2017-Oct-02 00:59N 38°54' E 001°25'0 0.0
2017-Oct-02 00:28N 38°54' E 001°25'0 0.0
2017-Oct-01 23:59N 38°54' E 001°25'0 0.0
2017-Oct-01 23:29N 38°54' E 001°25'0 0.0
2017-Oct-01 23:00N 38°54' E 001°25'0 0.0
2017-Oct-01 22:29N 38°54' E 001°25'0 0.0
2017-Oct-01 21:58N 38°54' E 001°25'0 0.0
2017-Oct-01 21:29N 38°54' E 001°25'0 0.0
2017-Oct-01 20:59N 38°54' E 001°25'0 0.0
2017-Oct-01 20:29N 38°54' E 001°25'0 0.0
2017-Oct-01 19:59N 38°54' E 001°25'0 0.0
2017-Oct-01 19:29N 38°54' E 001°25'0 0.0
2017-Oct-01 18:59N 38°54' E 001°25'0 0.0
2017-Oct-01 18:27N 38°54' E 001°25'0 0.8
2017-Oct-01 17:59N 38°54' E 001°25'1 3.0
2017-Oct-01 17:30N 38°54' E 001°27'5 7.0
2017-Oct-01 16:50N 38°56' E 001°32'0 0.2
2017-Oct-01 16:30N 38°56' E 001°32'3 4.9
2017-Oct-01 15:57N 38°54' E 001°30'3 6.4
2017-Oct-01 15:30N 38°53' E 001°27'1 2.7
2017-Oct-01 15:00N 38°53' E 001°25'0 0.0
2017-Oct-01 14:29N 38°53' E 001°25'1 0.0
2017-Sep-30 01:58N 38°54' E 001°25'0 0.0
2017-Sep-30 01:29N 38°54' E 001°25'0 0.0
2017-Sep-30 00:57N 38°54' E 001°25'0 0.0
2017-Sep-30 00:30N 38°54' E 001°25'0 0.0
2017-Sep-29 23:59N 38°54' E 001°25'0 0.0
2017-Sep-29 23:30N 38°54' E 001°25'0 0.0
2017-Sep-29 23:00N 38°54' E 001°25'0 0.0
2017-Sep-29 22:28N 38°54' E 001°25'0 0.0
2017-Sep-29 21:59N 38°54' E 001°25'0 0.0
2017-Sep-29 21:28N 38°54' E 001°25'0 0.0
2017-Sep-29 21:00N 38°54' E 001°25'0 0.0
2017-Sep-29 20:29N 38°54' E 001°25'0 0.0
2017-Sep-29 19:59N 38°54' E 001°25'0 0.0
2017-Sep-29 19:30N 38°54' E 001°25'0 0.0
2017-Sep-29 18:58N 38°54' E 001°25'0 0.0
2017-Sep-29 18:30N 38°54' E 001°25'0 0.0
2017-Sep-29 18:00N 38°54' E 001°25'0 0.0
2017-Sep-29 17:29N 38°54' E 001°25'0 0.2
2017-Sep-29 17:00N 38°54' E 001°25'1 1.0
2017-Sep-29 16:30N 38°53' E 001°25'0 0.0
2017-Sep-29 16:00N 38°53' E 001°25'0 0.0
2017-Sep-29 15:30N 38°53' E 001°25'0 0.0
2017-Sep-29 15:00N 38°53' E 001°25'0 0.0
2017-Sep-29 14:30N 38°53' E 001°25'0 0.0
2017-Sep-29 13:59N 38°53' E 001°25'0 0.0
2017-Sep-29 13:29N 38°53' E 001°25'1 1.4
2017-Sep-29 13:00N 38°54' E 001°25'0 0.0
2017-Sep-29 12:29N 38°54' E 001°25'0 0.7
2017-Sep-29 12:00N 38°54' E 001°25'0 0.0
2017-Sep-29 11:30N 38°54' E 001°25'0 0.0
2017-Sep-29 11:00N 38°54' E 001°25'0 0.0
2017-Sep-29 10:29N 38°54' E 001°25'0 0.0
2017-Sep-29 09:59N 38°54' E 001°25'0 0.0
2017-Sep-29 09:29N 38°54' E 001°25'0 0.0
2017-Sep-29 09:00N 38°54' E 001°25'0 0.0
2017-Sep-29 08:31N 38°54' E 001°25'0 0.0
2017-Sep-29 07:59N 38°54' E 001°25'0 0.0
2017-Sep-29 07:29N 38°54' E 001°25'0 0.0
2017-Sep-29 06:59N 38°54' E 001°25'0 0.0
2017-Sep-29 06:29N 38°54' E 001°25'0 0.0
2017-Sep-29 05:59N 38°54' E 001°25'0 0.0
2017-Sep-29 05:30N 38°54' E 001°25'0 0.0
2017-Sep-29 04:59N 38°54' E 001°25'0 0.0
2017-Sep-29 04:29N 38°54' E 001°25'0 0.0
2017-Sep-29 03:59N 38°54' E 001°25'0 0.0
2017-Sep-29 03:30N 38°54' E 001°25'0 0.0
2017-Sep-29 02:59N 38°54' E 001°25'0 0.0
2017-Sep-29 02:30N 38°54' E 001°25'0 0.0
2017-Sep-29 01:59N 38°54' E 001°25'0 0.0
2017-Sep-29 01:28N 38°54' E 001°25'0 0.0
2017-Sep-29 00:59N 38°54' E 001°25'0 0.0
2017-Sep-29 00:29N 38°54' E 001°25'0 0.0
2017-Sep-29 00:00N 38°54' E 001°25'0 0.0
2017-Sep-28 23:26N 38°54' E 001°25'0 0.0
2017-Sep-28 22:59N 38°54' E 001°25'0 0.0
2017-Sep-28 22:28N 38°54' E 001°25'0 0.0
2017-Sep-28 21:58N 38°54' E 001°25'0 0.0
2017-Sep-28 21:28N 38°54' E 001°25'0 0.0
2017-Sep-28 20:58N 38°54' E 001°25'0 0.0
2017-Sep-28 20:30N 38°54' E 001°25'0 0.0
2017-Sep-28 19:57N 38°54' E 001°25'0 0.0
2017-Sep-28 19:30N 38°54' E 001°25'0 0.0
2017-Sep-28 19:00N 38°54' E 001°25'0 0.0
2017-Sep-28 18:30N 38°54' E 001°25'0 0.0
2017-Sep-28 17:59N 38°54' E 001°25'0 0.0
2017-Sep-28 17:29N 38°54' E 001°25'0 0.2
2017-Sep-28 16:59N 38°54' E 001°25'0 0.8
2017-Sep-28 16:29N 38°53' E 001°25'0 0.0
2017-Sep-28 15:59N 38°53' E 001°25'0 0.0
2017-Sep-28 15:28N 38°53' E 001°25'0 0.0
2017-Sep-28 15:00N 38°53' E 001°25'0 0.0
2017-Sep-28 14:29N 38°53' E 001°25'0 0.0
2017-Sep-28 13:59N 38°53' E 001°25'1 1.1
2017-Sep-28 13:31N 38°54' E 001°25'0 0.4
2017-Sep-28 12:59N 38°54' E 001°25'0 0.4
2017-Sep-28 12:30N 38°54' E 001°25'0 0.3
2017-Sep-28 12:01N 38°54' E 001°25'0 0.0
2017-Sep-28 11:29N 38°54' E 001°25'0 0.0
2017-Sep-28 10:59N 38°54' E 001°25'0 0.0
2017-Sep-28 10:29N 38°54' E 001°25'0 0.0
2017-Sep-28 09:58N 38°54' E 001°25'0 0.0
2017-Sep-28 09:30N 38°54' E 001°25'0 0.0
2017-Sep-28 08:58N 38°54' E 001°25'0 0.0
2017-Sep-28 08:29N 38°54' E 001°25'0 0.0
2017-Sep-28 08:00N 38°54' E 001°25'0 0.0
2017-Sep-28 07:29N 38°54' E 001°25'0 0.0
2017-Sep-28 06:59N 38°54' E 001°25'0 0.0
2017-Sep-28 06:29N 38°54' E 001°25'0 0.0
2017-Sep-28 05:58N 38°54' E 001°25'0 0.0
2017-Sep-28 05:31N 38°54' E 001°25'0 0.0
2017-Sep-28 04:59N 38°54' E 001°25'0 0.0
2017-Sep-28 04:31N 38°54' E 001°25'0 0.0
2017-Sep-28 04:00N 38°54' E 001°25'0 0.0
2017-Sep-28 03:29N 38°54' E 001°25'0 0.0
2017-Sep-28 02:59N 38°54' E 001°25'0 0.0
2017-Sep-28 02:30N 38°54' E 001°25'0 0.0
2017-Sep-28 01:58N 38°54' E 001°25'0 0.0
2017-Sep-28 01:29N 38°54' E 001°25'0 0.0
2017-Sep-28 00:59N 38°54' E 001°25'0 0.0
2017-Sep-28 00:29N 38°54' E 001°25'0 0.0
2017-Sep-27 23:59N 38°54' E 001°25'0 0.0
2017-Sep-27 23:29N 38°54' E 001°25'0 0.0
2017-Sep-27 23:00N 38°54' E 001°25'0 0.0
2017-Sep-27 22:30N 38°54' E 001°25'0 0.0
2017-Sep-27 22:00N 38°54' E 001°25'0 0.0
2017-Sep-27 21:29N 38°54' E 001°25'0 0.0
2017-Sep-27 20:59N 38°54' E 001°25'0 0.0
2017-Sep-27 20:28N 38°54' E 001°25'0 0.0
2017-Sep-27 19:59N 38°54' E 001°25'0 0.0
2017-Sep-27 19:29N 38°54' E 001°25'0 0.0
2017-Sep-27 18:59N 38°54' E 001°25'0 0.0
2017-Sep-27 18:29N 38°54' E 001°25'0 0.0
2017-Sep-27 18:00N 38°54' E 001°25'0 0.0
2017-Sep-27 17:29N 38°54' E 001°25'0 0.0
2017-Sep-27 16:59N 38°54' E 001°25'0 0.0
2017-Sep-27 16:30N 38°54' E 001°25'0 0.0
2017-Sep-27 16:00N 38°54' E 001°25'0 0.0
2017-Sep-27 15:30N 38°54' E 001°25'0 0.0
2017-Sep-27 15:00N 38°54' E 001°25'0 0.0
2017-Sep-27 14:29N 38°54' E 001°25'0 0.0
2017-Sep-27 14:00N 38°54' E 001°25'0 0.0
2017-Sep-27 13:28N 38°54' E 001°25'0 0.0
2017-Sep-27 13:00N 38°54' E 001°25'0 0.0
2017-Sep-27 12:29N 38°54' E 001°25'0 0.0
2017-Sep-27 11:58N 38°54' E 001°25'0 0.0
2017-Sep-27 11:30N 38°54' E 001°25'0 0.0
2017-Sep-27 10:59N 38°54' E 001°25'0 0.0
2017-Sep-27 10:29N 38°54' E 001°25'0 0.0
2017-Sep-27 10:00N 38°54' E 001°25'0 0.0
2017-Sep-27 09:30N 38°54' E 001°25'0 0.0
2017-Sep-27 09:00N 38°54' E 001°25'0 0.0
2017-Sep-27 08:30N 38°54' E 001°25'0 0.0
2017-Sep-27 07:58N 38°54' E 001°25'0 0.0
2017-Sep-27 07:29N 38°54' E 001°25'0 0.0
2017-Sep-27 07:00N 38°54' E 001°25'0 0.0
2017-Sep-27 06:30N 38°54' E 001°25'0 0.0
2017-Sep-27 05:59N 38°54' E 001°25'0 0.0
2017-Sep-27 05:29N 38°54' E 001°25'0 0.0
2017-Sep-27 05:00N 38°54' E 001°25'0 0.0
2017-Sep-27 04:31N 38°54' E 001°25'0 0.0
2017-Sep-27 04:00N 38°54' E 001°25'0 0.0
2017-Sep-27 03:27N 38°54' E 001°25'0 0.0
2017-Sep-27 03:00N 38°54' E 001°25'0 0.0
2017-Sep-27 02:29N 38°54' E 001°25'0 0.0
2017-Sep-27 01:59N 38°54' E 001°25'0 0.0
2017-Sep-27 01:30N 38°54' E 001°25'0 0.0
2017-Sep-27 00:59N 38°54' E 001°25'0 0.0
2017-Sep-27 00:28N 38°54' E 001°25'0 0.0
2017-Sep-26 23:58N 38°54' E 001°25'0 0.0
2017-Sep-26 23:29N 38°54' E 001°25'0 0.0
2017-Sep-26 22:58N 38°54' E 001°25'0 0.0
2017-Sep-26 22:29N 38°54' E 001°25'0 0.0
2017-Sep-26 21:59N 38°54' E 001°25'0 0.0
2017-Sep-26 21:29N 38°54' E 001°25'0 0.0
2017-Sep-26 21:00N 38°54' E 001°25'0 0.0
2017-Sep-26 20:30N 38°54' E 001°25'0 0.0
2017-Sep-26 19:59N 38°54' E 001°25'0 0.0
2017-Sep-26 19:30N 38°54' E 001°25'0 0.0
2017-Sep-26 19:00N 38°54' E 001°25'0 0.0
2017-Sep-26 18:28N 38°54' E 001°25'0 0.0
2017-Sep-26 17:59N 38°54' E 001°25'0 0.7
2017-Sep-26 17:30N 38°54' E 001°25'0 0.6
2017-Sep-26 16:58N 38°53' E 001°25'0 0.8
2017-Sep-26 16:29N 38°53' E 001°25'0 0.0
2017-Sep-26 15:59N 38°53' E 001°25'1 1.1
2017-Sep-26 15:30N 38°53' E 001°26'1 1.4
2017-Sep-26 14:59N 38°53' E 001°26'0 1.0
2017-Sep-26 14:30N 38°54' E 001°25'0 0.0
2017-Sep-26 13:58N 38°54' E 001°25'0 0.0
2017-Sep-26 13:29N 38°54' E 001°25'0 0.4
2017-Sep-26 12:59N 38°54' E 001°25'0 0.0
2017-Sep-26 12:30N 38°54' E 001°25'0 0.7
2017-Sep-26 11:58N 38°54' E 001°25'0 0.0
2017-Sep-26 11:30N 38°54' E 001°25'0 0.0
2017-Sep-26 10:58N 38°54' E 001°25'0 0.0
2017-Sep-26 10:30N 38°54' E 001°25'0 0.0
2017-Sep-26 10:00N 38°54' E 001°25'0 0.0
2017-Sep-26 09:29N 38°54' E 001°25'0 0.0
2017-Sep-26 08:59N 38°54' E 001°25'0 0.0
2017-Sep-26 08:30N 38°54' E 001°25'0 0.0
2017-Sep-26 08:00N 38°54' E 001°25'0 0.2
2017-Sep-26 07:29N 38°53' E 001°25'2 3.2
2017-Sep-26 06:59N 38°55' E 001°26'0 0.1
2017-Sep-26 06:30N 38°55' E 001°26'1 2.2
2017-Sep-26 05:51N 38°54' E 001°25'0 0.0
2017-Sep-26 05:30N 38°54' E 001°25'0 0.0
2017-Sep-26 04:59N 38°54' E 001°25'0 0.0
2017-Sep-26 04:30N 38°54' E 001°25'0 0.0
2017-Sep-26 03:58N 38°54' E 001°25'0 0.0
2017-Sep-26 03:30N 38°54' E 001°25'0 0.1
2017-Sep-26 02:58N 38°54' E 001°25'0 0.0
2017-Sep-26 02:29N 38°54' E 001°25'0 0.0
2017-Sep-26 02:00N 38°54' E 001°25'0 0.0
2017-Sep-26 01:29N 38°54' E 001°25'0 0.0
2017-Sep-26 01:00N 38°54' E 001°25'0 0.0
2017-Sep-26 00:30N 38°54' E 001°25'0 0.0
2017-Sep-25 23:59N 38°54' E 001°25'0 0.0
2017-Sep-25 23:28N 38°54' E 001°25'0 0.1
2017-Sep-25 23:00N 38°54' E 001°25'0 0.0
2017-Sep-25 22:30N 38°54' E 001°25'0 0.0
2017-Sep-25 22:00N 38°54' E 001°25'0 0.0
2017-Sep-25 21:28N 38°54' E 001°25'0 0.0
2017-Sep-25 21:00N 38°54' E 001°25'0 0.0
2017-Sep-25 20:29N 38°54' E 001°25'0 0.0
2017-Sep-25 20:00N 38°54' E 001°25'0 0.0
2017-Sep-25 19:30N 38°54' E 001°25'0 0.6
2017-Sep-25 18:59N 38°54' E 001°25'1 1.2
2017-Sep-25 18:29N 38°53' E 001°25'0 0.0
2017-Sep-25 18:00N 38°53' E 001°25'0 0.0
2017-Sep-25 17:30N 38°53' E 001°25'0 0.0
2017-Sep-25 16:58N 38°53' E 001°25'0 0.0
2017-Sep-25 11:35N 38°53' E 001°25'0 3.1
2017-Sep-25 11:29N 38°53' E 001°25'1 1.1
2017-Sep-25 11:00N 38°54' E 001°25'0 0.8
2017-Sep-25 10:29N 38°54' E 001°25'0 0.0
2017-Sep-25 10:00N 38°54' E 001°25'0 0.0
2017-Sep-25 09:30N 38°54' E 001°25'0 0.0
2017-Sep-25 09:00N 38°54' E 001°25'0 0.0
2017-Sep-25 08:29N 38°54' E 001°25'0 0.0
2017-Sep-25 07:59N 38°54' E 001°25'0 0.0
2017-Sep-25 07:30N 38°54' E 001°25'0 0.0
2017-Sep-25 07:00N 38°54' E 001°25'0 0.0
2017-Sep-25 06:30N 38°54' E 001°25'0 0.0
2017-Sep-25 05:59N 38°54' E 001°25'0 0.0
2017-Sep-25 05:30N 38°54' E 001°25'0 0.0
2017-Sep-25 04:59N 38°54' E 001°25'0 0.0
2017-Sep-25 04:29N 38°54' E 001°25'0 0.0
2017-Sep-25 04:00N 38°54' E 001°25'0 0.0
2017-Sep-25 03:28N 38°54' E 001°25'0 0.0
2017-Sep-25 03:00N 38°54' E 001°25'0 0.0
2017-Sep-25 02:29N 38°54' E 001°25'0 0.0
2017-Sep-25 01:57N 38°54' E 001°25'0 0.0
2017-Sep-25 01:30N 38°54' E 001°25'0 0.0
2017-Sep-25 00:58N 38°54' E 001°25'0 0.0
2017-Sep-25 00:29N 38°54' E 001°25'0 0.0
2017-Sep-25 00:00N 38°54' E 001°25'0 0.0
2017-Sep-24 23:29N 38°54' E 001°25'0 0.0
2017-Sep-24 22:59N 38°54' E 001°25'0 0.0
2017-Sep-24 22:30N 38°54' E 001°25'0 0.0
2017-Sep-24 21:58N 38°54' E 001°25'0 0.0
2017-Sep-24 21:30N 38°54' E 001°25'0 0.0
2017-Sep-24 20:59N 38°54' E 001°25'0 0.0
2017-Sep-24 20:28N 38°54' E 001°25'0 0.0
2017-Sep-24 20:00N 38°54' E 001°25'0 0.0
2017-Sep-24 19:29N 38°54' E 001°25'0 0.7
2017-Sep-24 18:58N 38°54' E 001°25'2 3.2
2017-Sep-24 18:30N 38°52' E 001°26'1 1.6
2017-Sep-24 18:00N 38°52' E 001°25'2 3.0
2017-Sep-24 17:29N 38°53' E 001°25'0 0.0
2017-Sep-24 17:00N 38°53' E 001°25'0 0.0
2017-Sep-24 16:30N 38°53' E 001°25'0 0.0
2017-Sep-24 15:59N 38°53' E 001°25'1 1.3
2017-Sep-24 15:30N 38°54' E 001°25'0 0.0
2017-Sep-24 15:00N 38°54' E 001°25'1 1.3
2017-Sep-24 14:29N 38°53' E 001°25'0 0.0
2017-Sep-24 14:00N 38°53' E 001°25'0 0.0
2017-Sep-24 13:30N 38°53' E 001°25'0 0.0
2017-Sep-24 12:59N 38°53' E 001°25'0 0.0
2017-Sep-24 12:30N 38°53' E 001°25'0 0.7
2017-Sep-24 12:00N 38°53' E 001°25'1 1.7
2017-Sep-24 11:30N 38°53' E 001°26'1 1.7
2017-Sep-24 10:59N 38°54' E 001°25'0 0.7
2017-Sep-24 10:30N 38°54' E 001°25'0 0.0
2017-Sep-24 10:00N 38°54' E 001°25'0 0.0
2017-Sep-24 09:29N 38°54' E 001°25'0 0.0
2017-Sep-24 08:59N 38°54' E 001°25'0 0.1
2017-Sep-24 08:29N 38°54' E 001°25'0 0.0
2017-Sep-24 08:00N 38°54' E 001°25'0 0.0
2017-Sep-24 07:30N 38°54' E 001°25'0 0.0
2017-Sep-24 06:57N 38°54' E 001°25'0 0.0
2017-Sep-24 06:27N 38°54' E 001°25'0 0.0
2017-Sep-24 06:00N 38°54' E 001°25'0 0.0
2017-Sep-24 05:24N 38°54' E 001°25'0 0.0
2017-Sep-24 04:59N 38°54' E 001°25'0 0.0
2017-Sep-24 04:29N 38°54' E 001°25'0 0.0
2017-Sep-24 04:00N 38°54' E 001°25'0 0.0
2017-Sep-24 03:28N 38°54' E 001°25'0 0.0
2017-Sep-24 02:58N 38°54' E 001°25'0 0.0
2017-Sep-24 02:28N 38°54' E 001°25'0 0.0
2017-Sep-24 01:59N 38°54' E 001°25'0 0.0
2017-Sep-24 01:28N 38°54' E 001°25'0 0.0
2017-Sep-24 01:00N 38°54' E 001°25'0 0.0
2017-Sep-24 00:28N 38°54' E 001°25'0 0.0
2017-Sep-23 23:59N 38°54' E 001°25'0 0.0
2017-Sep-23 23:30N 38°54' E 001°25'0 0.0
2017-Sep-23 23:00N 38°54' E 001°25'0 0.0
2017-Sep-23 22:29N 38°54' E 001°25'0 0.0
2017-Sep-23 22:00N 38°54' E 001°25'0 0.0
2017-Sep-23 21:30N 38°54' E 001°25'0 0.0
2017-Sep-23 21:00N 38°54' E 001°25'0 0.0
2017-Sep-23 20:23N 38°54' E 001°25'0 0.0
2017-Sep-23 20:00N 38°54' E 001°25'  
Track history (hours):
 
Tides and Currents Weather Stations Pressure Air Temp Water Temp Dewpoint Dewpoint Depression Visibility Wind Speed Wind Dir Waves Ship Positions

La Pepa Cadiz

Last reported at 2017-Oct-03 07:45 UTC. Time now 2017-Oct-17 17:06 UTC.
Position N 37°34' W 000°49'.
Warning: this ship's position is 14 days out of date.

Length 21 m.

Type: Passenger vessel. MMSI: 224000010.

Date/timePositionNaut miles runAvg speedWind from/ knotsBaromVisibWave heightAir tempDewpointWater temp
2017-Oct-03 07:45N 37°34' W 000°49'2 8.4
2017-Oct-03 07:30N 37°34' W 000°46'6 8.4
2017-Oct-03 06:45N 37°37' W 000°39'2 8.5
2017-Oct-03 06:29N 37°38' W 000°36'4 8.5
2017-Oct-03 06:00N 37°39' W 000°31'116 8.1
2017-Oct-02 15:39N 38°50' E 001°25'1 8.1
2017-Oct-02 15:30N 38°52' E 001°25'2 4.4
2017-Oct-02 14:59N 38°54' E 001°25'0 0.0
2017-Oct-02 14:30N 38°54' E 001°25'0 0.7
2017-Oct-02 14:00N 38°54' E 001°25'0 0.7
2017-Oct-02 13:30N 38°54' E 001°25'0 0.0
2017-Oct-02 13:00N 38°54' E 001°25'0 0.0
2017-Oct-02 12:29N 38°54' E 001°25'0 0.0
2017-Oct-02 11:59N 38°54' E 001°25'0 0.0
2017-Oct-02 11:28N 38°54' E 001°25'0 0.0
2017-Oct-02 11:00N 38°54' E 001°25'0 0.0
2017-Oct-02 10:29N 38°54' E 001°25'0 0.0
2017-Oct-02 10:00N 38°54' E 001°25'0 0.0
2017-Oct-02 09:30N 38°54' E 001°25'0 0.0
2017-Oct-02 09:00N 38°54' E 001°25'0 0.0
2017-Oct-02 08:30N 38°54' E 001°25'0 0.7
2017-Oct-02 07:58N 38°54' E 001°25'0 0.0
2017-Oct-02 07:30N 38°54' E 001°25'0 0.0
2017-Oct-02 06:59N 38°54' E 001°25'0 0.0
2017-Oct-02 06:27N 38°54' E 001°25'0 0.0
2017-Oct-02 05:59N 38°54' E 001°25'0 0.0
2017-Oct-02 05:30N 38°54' E 001°25'0 0.0
2017-Oct-02 05:00N 38°54' E 001°25'0 0.0
2017-Oct-02 04:28N 38°54' E 001°25'0 0.0
2017-Oct-02 04:00N 38°54' E 001°25'0 0.0
2017-Oct-02 03:30N 38°54' E 001°25'0 0.0
2017-Oct-02 02:59N 38°54' E 001°25'0 0.0
2017-Oct-02 02:30N 38°54' E 001°25'0 0.0
2017-Oct-02 01:58N 38°54' E 001°25'0 0.0
2017-Oct-02 01:30N 38°54' E 001°25'0 0.0
2017-Oct-02 00:59N 38°54' E 001°25'0 0.0
2017-Oct-02 00:28N 38°54' E 001°25'0 0.0
2017-Oct-01 23:59N 38°54' E 001°25'0 0.0
2017-Oct-01 23:29N 38°54' E 001°25'0 0.0
2017-Oct-01 23:00N 38°54' E 001°25'0 0.0
2017-Oct-01 22:29N 38°54' E 001°25'0 0.0
2017-Oct-01 21:58N 38°54' E 001°25'0 0.0
2017-Oct-01 21:29N 38°54' E 001°25'0 0.0
2017-Oct-01 20:59N 38°54' E 001°25'0 0.0
2017-Oct-01 20:29N 38°54' E 001°25'0 0.0
2017-Oct-01 19:59N 38°54' E 001°25'0 0.0
2017-Oct-01 19:29N 38°54' E 001°25'0 0.0
2017-Oct-01 18:59N 38°54' E 001°25'0 0.0
2017-Oct-01 18:27N 38°54' E 001°25'0 0.8
2017-Oct-01 17:59N 38°54' E 001°25'1 3.0
2017-Oct-01 17:30N 38°54' E 001°27'5 7.0
2017-Oct-01 16:50N 38°56' E 001°32'0 0.2
2017-Oct-01 16:30N 38°56' E 001°32'3 4.9
2017-Oct-01 15:57N 38°54' E 001°30'3 6.4
2017-Oct-01 15:30N 38°53' E 001°27'1 2.7
2017-Oct-01 15:00N 38°53' E 001°25'0 0.0
2017-Oct-01 14:29N 38°53' E 001°25'1 0.0
2017-Sep-30 01:58N 38°54' E 001°25'0 0.0
2017-Sep-30 01:29N 38°54' E 001°25'0 0.0
2017-Sep-30 00:57N 38°54' E 001°25'0 0.0
2017-Sep-30 00:30N 38°54' E 001°25'0 0.0
2017-Sep-29 23:59N 38°54' E 001°25'0 0.0
2017-Sep-29 23:30N 38°54' E 001°25'0 0.0
2017-Sep-29 23:00N 38°54' E 001°25'0 0.0
2017-Sep-29 22:28N 38°54' E 001°25'0 0.0
2017-Sep-29 21:59N 38°54' E 001°25'0 0.0
2017-Sep-29 21:28N 38°54' E 001°25'0 0.0
2017-Sep-29 21:00N 38°54' E 001°25'0 0.0
2017-Sep-29 20:29N 38°54' E 001°25'0 0.0
2017-Sep-29 19:59N 38°54' E 001°25'0 0.0
2017-Sep-29 19:30N 38°54' E 001°25'0 0.0
2017-Sep-29 18:58N 38°54' E 001°25'0 0.0
2017-Sep-29 18:30N 38°54' E 001°25'0 0.0
2017-Sep-29 18:00N 38°54' E 001°25'0 0.0
2017-Sep-29 17:29N 38°54' E 001°25'0 0.2
2017-Sep-29 17:00N 38°54' E 001°25'1 1.0
2017-Sep-29 16:30N 38°53' E 001°25'0 0.0
2017-Sep-29 16:00N 38°53' E 001°25'0 0.0
2017-Sep-29 15:30N 38°53' E 001°25'0 0.0
2017-Sep-29 15:00N 38°53' E 001°25'0 0.0
2017-Sep-29 14:30N 38°53' E 001°25'0 0.0
2017-Sep-29 13:59N 38°53' E 001°25'0 0.0
2017-Sep-29 13:29N 38°53' E 001°25'1 1.4
2017-Sep-29 13:00N 38°54' E 001°25'0 0.0
2017-Sep-29 12:29N 38°54' E 001°25'0 0.7
2017-Sep-29 12:00N 38°54' E 001°25'0 0.0
2017-Sep-29 11:30N 38°54' E 001°25'0 0.0
2017-Sep-29 11:00N 38°54' E 001°25'0 0.0
2017-Sep-29 10:29N 38°54' E 001°25'0 0.0
2017-Sep-29 09:59N 38°54' E 001°25'0 0.0
2017-Sep-29 09:29N 38°54' E 001°25'0 0.0
2017-Sep-29 09:00N 38°54' E 001°25'0 0.0
2017-Sep-29 08:31N 38°54' E 001°25'0 0.0
2017-Sep-29 07:59N 38°54' E 001°25'0 0.0
2017-Sep-29 07:29N 38°54' E 001°25'0 0.0
2017-Sep-29 06:59N 38°54' E 001°25'0 0.0
2017-Sep-29 06:29N 38°54' E 001°25'0 0.0
2017-Sep-29 05:59N 38°54' E 001°25'0 0.0
2017-Sep-29 05:30N 38°54' E 001°25'0 0.0
2017-Sep-29 04:59N 38°54' E 001°25'0 0.0
2017-Sep-29 04:29N 38°54' E 001°25'0 0.0
2017-Sep-29 03:59N 38°54' E 001°25'0 0.0
2017-Sep-29 03:30N 38°54' E 001°25'0 0.0
2017-Sep-29 02:59N 38°54' E 001°25'0 0.0
2017-Sep-29 02:30N 38°54' E 001°25'0 0.0
2017-Sep-29 01:59N 38°54' E 001°25'0 0.0
2017-Sep-29 01:28N 38°54' E 001°25'0 0.0
2017-Sep-29 00:59N 38°54' E 001°25'0 0.0
2017-Sep-29 00:29N 38°54' E 001°25'0 0.0
2017-Sep-29 00:00N 38°54' E 001°25'0 0.0
2017-Sep-28 23:26N 38°54' E 001°25'0 0.0
2017-Sep-28 22:59N 38°54' E 001°25'0 0.0
2017-Sep-28 22:28N 38°54' E 001°25'0 0.0
2017-Sep-28 21:58N 38°54' E 001°25'0 0.0
2017-Sep-28 21:28N 38°54' E 001°25'0 0.0
2017-Sep-28 20:58N 38°54' E 001°25'0 0.0
2017-Sep-28 20:30N 38°54' E 001°25'0 0.0
2017-Sep-28 19:57N 38°54' E 001°25'0 0.0
2017-Sep-28 19:30N 38°54' E 001°25'0 0.0
2017-Sep-28 19:00N 38°54' E 001°25'0 0.0
2017-Sep-28 18:30N 38°54' E 001°25'0 0.0
2017-Sep-28 17:59N 38°54' E 001°25'0 0.0
2017-Sep-28 17:29N 38°54' E 001°25'0 0.2
2017-Sep-28 16:59N 38°54' E 001°25'0 0.8
2017-Sep-28 16:29N 38°53' E 001°25'0 0.0
2017-Sep-28 15:59N 38°53' E 001°25'0 0.0
2017-Sep-28 15:28N 38°53' E 001°25'0 0.0
2017-Sep-28 15:00N 38°53' E 001°25'0 0.0
2017-Sep-28 14:29N 38°53' E 001°25'0 0.0
2017-Sep-28 13:59N 38°53' E 001°25'1 1.1
2017-Sep-28 13:31N 38°54' E 001°25'0 0.4
2017-Sep-28 12:59N 38°54' E 001°25'0 0.4
2017-Sep-28 12:30N 38°54' E 001°25'0 0.3
2017-Sep-28 12:01N 38°54' E 001°25'0 0.0
2017-Sep-28 11:29N 38°54' E 001°25'0 0.0
2017-Sep-28 10:59N 38°54' E 001°25'0 0.0
2017-Sep-28 10:29N 38°54' E 001°25'0 0.0
2017-Sep-28 09:58N 38°54' E 001°25'0 0.0
2017-Sep-28 09:30N 38°54' E 001°25'0 0.0
2017-Sep-28 08:58N 38°54' E 001°25'0 0.0
2017-Sep-28 08:29N 38°54' E 001°25'0 0.0
2017-Sep-28 08:00N 38°54' E 001°25'0 0.0
2017-Sep-28 07:29N 38°54' E 001°25'0 0.0
2017-Sep-28 06:59N 38°54' E 001°25'0 0.0
2017-Sep-28 06:29N 38°54' E 001°25'0 0.0
2017-Sep-28 05:58N 38°54' E 001°25'0 0.0
2017-Sep-28 05:31N 38°54' E 001°25'0 0.0
2017-Sep-28 04:59N 38°54' E 001°25'0 0.0
2017-Sep-28 04:31N 38°54' E 001°25'0 0.0
2017-Sep-28 04:00N 38°54' E 001°25'0 0.0
2017-Sep-28 03:29N 38°54' E 001°25'0 0.0
2017-Sep-28 02:59N 38°54' E 001°25'0 0.0
2017-Sep-28 02:30N 38°54' E 001°25'0 0.0
2017-Sep-28 01:58N 38°54' E 001°25'0 0.0
2017-Sep-28 01:29N 38°54' E 001°25'0 0.0
2017-Sep-28 00:59N 38°54' E 001°25'0 0.0
2017-Sep-28 00:29N 38°54' E 001°25'0 0.0
2017-Sep-27 23:59N 38°54' E 001°25'0 0.0
2017-Sep-27 23:29N 38°54' E 001°25'0 0.0
2017-Sep-27 23:00N 38°54' E 001°25'0 0.0
2017-Sep-27 22:30N 38°54' E 001°25'0 0.0
2017-Sep-27 22:00N 38°54' E 001°25'0 0.0
2017-Sep-27 21:29N 38°54' E 001°25'0 0.0
2017-Sep-27 20:59N 38°54' E 001°25'0 0.0
2017-Sep-27 20:28N 38°54' E 001°25'0 0.0
2017-Sep-27 19:59N 38°54' E 001°25'0 0.0
2017-Sep-27 19:29N 38°54' E 001°25'0 0.0
2017-Sep-27 18:59N 38°54' E 001°25'0 0.0
2017-Sep-27 18:29N 38°54' E 001°25'0 0.0
2017-Sep-27 18:00N 38°54' E 001°25'0 0.0
2017-Sep-27 17:29N 38°54' E 001°25'0 0.0
2017-Sep-27 16:59N 38°54' E 001°25'0 0.0
2017-Sep-27 16:30N 38°54' E 001°25'0 0.0
2017-Sep-27 16:00N 38°54' E 001°25'0 0.0
2017-Sep-27 15:30N 38°54' E 001°25'0 0.0
2017-Sep-27 15:00N 38°54' E 001°25'0 0.0
2017-Sep-27 14:29N 38°54' E 001°25'0 0.0
2017-Sep-27 14:00N 38°54' E 001°25'0 0.0
2017-Sep-27 13:28N 38°54' E 001°25'0 0.0
2017-Sep-27 13:00N 38°54' E 001°25'0 0.0
2017-Sep-27 12:29N 38°54' E 001°25'0 0.0
2017-Sep-27 11:58N 38°54' E 001°25'0 0.0
2017-Sep-27 11:30N 38°54' E 001°25'0 0.0
2017-Sep-27 10:59N 38°54' E 001°25'0 0.0
2017-Sep-27 10:29N 38°54' E 001°25'0 0.0
2017-Sep-27 10:00N 38°54' E 001°25'0 0.0
2017-Sep-27 09:30N 38°54' E 001°25'0 0.0
2017-Sep-27 09:00N 38°54' E 001°25'0 0.0
2017-Sep-27 08:30N 38°54' E 001°25'0 0.0
2017-Sep-27 07:58N 38°54' E 001°25'0 0.0
2017-Sep-27 07:29N 38°54' E 001°25'0 0.0
2017-Sep-27 07:00N 38°54' E 001°25'0 0.0
2017-Sep-27 06:30N 38°54' E 001°25'0 0.0
2017-Sep-27 05:59N 38°54' E 001°25'0 0.0
2017-Sep-27 05:29N 38°54' E 001°25'0 0.0
2017-Sep-27 05:00N 38°54' E 001°25'0 0.0
2017-Sep-27 04:31N 38°54' E 001°25'0 0.0
2017-Sep-27 04:00N 38°54' E 001°25'0 0.0
2017-Sep-27 03:27N 38°54' E 001°25'0 0.0
2017-Sep-27 03:00N 38°54' E 001°25'0 0.0
2017-Sep-27 02:29N 38°54' E 001°25'0 0.0
2017-Sep-27 01:59N 38°54' E 001°25'0 0.0
2017-Sep-27 01:30N 38°54' E 001°25'0 0.0
2017-Sep-27 00:59N 38°54' E 001°25'0 0.0
2017-Sep-27 00:28N 38°54' E 001°25'0 0.0
2017-Sep-26 23:58N 38°54' E 001°25'0 0.0
2017-Sep-26 23:29N 38°54' E 001°25'0 0.0
2017-Sep-26 22:58N 38°54' E 001°25'0 0.0
2017-Sep-26 22:29N 38°54' E 001°25'0 0.0
2017-Sep-26 21:59N 38°54' E 001°25'0 0.0
2017-Sep-26 21:29N 38°54' E 001°25'0 0.0
2017-Sep-26 21:00N 38°54' E 001°25'0 0.0
2017-Sep-26 20:30N 38°54' E 001°25'0 0.0
2017-Sep-26 19:59N 38°54' E 001°25'0 0.0
2017-Sep-26 19:30N 38°54' E 001°25'0 0.0
2017-Sep-26 19:00N 38°54' E 001°25'0 0.0
2017-Sep-26 18:28N 38°54' E 001°25'0 0.0
2017-Sep-26 17:59N 38°54' E 001°25'0 0.7
2017-Sep-26 17:30N 38°54' E 001°25'0 0.6
2017-Sep-26 16:58N 38°53' E 001°25'0 0.8
2017-Sep-26 16:29N 38°53' E 001°25'0 0.0
2017-Sep-26 15:59N 38°53' E 001°25'1 1.1
2017-Sep-26 15:30N 38°53' E 001°26'1 1.4
2017-Sep-26 14:59N 38°53' E 001°26'0 1.0
2017-Sep-26 14:30N 38°54' E 001°25'0 0.0
2017-Sep-26 13:58N 38°54' E 001°25'0 0.0
2017-Sep-26 13:29N 38°54' E 001°25'0 0.4
2017-Sep-26 12:59N 38°54' E 001°25'0 0.0
2017-Sep-26 12:30N 38°54' E 001°25'0 0.7
2017-Sep-26 11:58N 38°54' E 001°25'0 0.0
2017-Sep-26 11:30N 38°54' E 001°25'0 0.0
2017-Sep-26 10:58N 38°54' E 001°25'0 0.0
2017-Sep-26 10:30N 38°54' E 001°25'0 0.0
2017-Sep-26 10:00N 38°54' E 001°25'0 0.0
2017-Sep-26 09:29N 38°54' E 001°25'0 0.0
2017-Sep-26 08:59N 38°54' E 001°25'0 0.0
2017-Sep-26 08:30N 38°54' E 001°25'0 0.0
2017-Sep-26 08:00N 38°54' E 001°25'0 0.2
2017-Sep-26 07:29N 38°53' E 001°25'2 3.2
2017-Sep-26 06:59N 38°55' E 001°26'0 0.1
2017-Sep-26 06:30N 38°55' E 001°26'1 2.2
2017-Sep-26 05:51N 38°54' E 001°25'0 0.0
2017-Sep-26 05:30N 38°54' E 001°25'0 0.0
2017-Sep-26 04:59N 38°54' E 001°25'0 0.0
2017-Sep-26 04:30N 38°54' E 001°25'0 0.0
2017-Sep-26 03:58N 38°54' E 001°25'0 0.0
2017-Sep-26 03:30N 38°54' E 001°25'0 0.1
2017-Sep-26 02:58N 38°54' E 001°25'0 0.0
2017-Sep-26 02:29N 38°54' E 001°25'0 0.0
2017-Sep-26 02:00N 38°54' E 001°25'0 0.0
2017-Sep-26 01:29N 38°54' E 001°25'0 0.0
2017-Sep-26 01:00N 38°54' E 001°25'0 0.0
2017-Sep-26 00:30N 38°54' E 001°25'0 0.0
2017-Sep-25 23:59N 38°54' E 001°25'0 0.0
2017-Sep-25 23:28N 38°54' E 001°25'0 0.1
2017-Sep-25 23:00N 38°54' E 001°25'0 0.0
2017-Sep-25 22:30N 38°54' E 001°25'0 0.0
2017-Sep-25 22:00N 38°54' E 001°25'0 0.0
2017-Sep-25 21:28N 38°54' E 001°25'0 0.0
2017-Sep-25 21:00N 38°54' E 001°25'0 0.0
2017-Sep-25 20:29N 38°54' E 001°25'0 0.0
2017-Sep-25 20:00N 38°54' E 001°25'0 0.0
2017-Sep-25 19:30N 38°54' E 001°25'0 0.6
2017-Sep-25 18:59N 38°54' E 001°25'1 1.2
2017-Sep-25 18:29N 38°53' E 001°25'0 0.0
2017-Sep-25 18:00N 38°53' E 001°25'0 0.0
2017-Sep-25 17:30N 38°53' E 001°25'0 0.0
2017-Sep-25 16:58N 38°53' E 001°25'0 0.0
2017-Sep-25 11:35N 38°53' E 001°25'0 3.1
2017-Sep-25 11:29N 38°53' E 001°25'1 1.1
2017-Sep-25 11:00N 38°54' E 001°25'0 0.8
2017-Sep-25 10:29N 38°54' E 001°25'0 0.0
2017-Sep-25 10:00N 38°54' E 001°25'0 0.0
2017-Sep-25 09:30N 38°54' E 001°25'0 0.0
2017-Sep-25 09:00N 38°54' E 001°25'0 0.0
2017-Sep-25 08:29N 38°54' E 001°25'0 0.0
2017-Sep-25 07:59N 38°54' E 001°25'0 0.0
2017-Sep-25 07:30N 38°54' E 001°25'0 0.0
2017-Sep-25 07:00N 38°54' E 001°25'0 0.0
2017-Sep-25 06:30N 38°54' E 001°25'0 0.0
2017-Sep-25 05:59N 38°54' E 001°25'0 0.0
2017-Sep-25 05:30N 38°54' E 001°25'0 0.0
2017-Sep-25 04:59N 38°54' E 001°25'0 0.0
2017-Sep-25 04:29N 38°54' E 001°25'0 0.0
2017-Sep-25 04:00N 38°54' E 001°25'0 0.0
2017-Sep-25 03:28N 38°54' E 001°25'0 0.0
2017-Sep-25 03:00N 38°54' E 001°25'0 0.0
2017-Sep-25 02:29N 38°54' E 001°25'0 0.0
2017-Sep-25 01:57N 38°54' E 001°25'0 0.0
2017-Sep-25 01:30N 38°54' E 001°25'0 0.0
2017-Sep-25 00:58N 38°54' E 001°25'0 0.0
2017-Sep-25 00:29N 38°54' E 001°25'0 0.0
2017-Sep-25 00:00N 38°54' E 001°25'0 0.0
2017-Sep-24 23:29N 38°54' E 001°25'0 0.0
2017-Sep-24 22:59N 38°54' E 001°25'0 0.0
2017-Sep-24 22:30N 38°54' E 001°25'0 0.0
2017-Sep-24 21:58N 38°54' E 001°25'0 0.0
2017-Sep-24 21:30N 38°54' E 001°25'0 0.0
2017-Sep-24 20:59N 38°54' E 001°25'0 0.0
2017-Sep-24 20:28N 38°54' E 001°25'0 0.0
2017-Sep-24 20:00N 38°54' E 001°25'0 0.0
2017-Sep-24 19:29N 38°54' E 001°25'0 0.7
2017-Sep-24 18:58N 38°54' E 001°25'2 3.2
2017-Sep-24 18:30N 38°52' E 001°26'1 1.6
2017-Sep-24 18:00N 38°52' E 001°25'2 3.0
2017-Sep-24 17:29N 38°53' E 001°25'0 0.0
2017-Sep-24 17:00N 38°53' E 001°25'0 0.0
2017-Sep-24 16:30N 38°53' E 001°25'0 0.0
2017-Sep-24 15:59N 38°53' E 001°25'1 1.3
2017-Sep-24 15:30N 38°54' E 001°25'0 0.0
2017-Sep-24 15:00N 38°54' E 001°25'1 1.3
2017-Sep-24 14:29N 38°53' E 001°25'0 0.0
2017-Sep-24 14:00N 38°53' E 001°25'0 0.0
2017-Sep-24 13:30N 38°53' E 001°25'0 0.0
2017-Sep-24 12:59N 38°53' E 001°25'0 0.0
2017-Sep-24 12:30N 38°53' E 001°25'0 0.7
2017-Sep-24 12:00N 38°53' E 001°25'1 1.7
2017-Sep-24 11:30N 38°53' E 001°26'1 1.7
2017-Sep-24 10:59N 38°54' E 001°25'0 0.7
2017-Sep-24 10:30N 38°54' E 001°25'0 0.0
2017-Sep-24 10:00N 38°54' E 001°25'0 0.0
2017-Sep-24 09:29N 38°54' E 001°25'0 0.0
2017-Sep-24 08:59N 38°54' E 001°25'0 0.1
2017-Sep-24 08:29N 38°54' E 001°25'0 0.0
2017-Sep-24 08:00N 38°54' E 001°25'0 0.0
2017-Sep-24 07:30N 38°54' E 001°25'0 0.0
2017-Sep-24 06:57N 38°54' E 001°25'0 0.0
2017-Sep-24 06:27N 38°54' E 001°25'0 0.0
2017-Sep-24 06:00N 38°54' E 001°25'0 0.0
2017-Sep-24 05:24N 38°54' E 001°25'0 0.0
2017-Sep-24 04:59N 38°54' E 001°25'0 0.0
2017-Sep-24 04:29N 38°54' E 001°25'0 0.0
2017-Sep-24 04:00N 38°54' E 001°25'0 0.0
2017-Sep-24 03:28N 38°54' E 001°25'0 0.0
2017-Sep-24 02:58N 38°54' E 001°25'0 0.0
2017-Sep-24 02:28N 38°54' E 001°25'0 0.0
2017-Sep-24 01:59N 38°54' E 001°25'0 0.0
2017-Sep-24 01:28N 38°54' E 001°25'0 0.0
2017-Sep-24 01:00N 38°54' E 001°25'0 0.0
2017-Sep-24 00:28N 38°54' E 001°25'0 0.0
2017-Sep-23 23:59N 38°54' E 001°25'0 0.0
2017-Sep-23 23:30N 38°54' E 001°25'0 0.0
2017-Sep-23 23:00N 38°54' E 001°25'0 0.0
2017-Sep-23 22:29N 38°54' E 001°25'0 0.0
2017-Sep-23 22:00N 38°54' E 001°25'0 0.0
2017-Sep-23 21:30N 38°54' E 001°25'0 0.0
2017-Sep-23 21:00N 38°54' E 001°25'0 0.0
2017-Sep-23 20:23N 38°54' E 001°25'0 0.0
2017-Sep-23 20:00N 38°54' E 001°25'  

Dump ship's entire track history